Stone Cabin, Nevada Weather observations

Data are for observation ending at time listed.
 Day   Time    Ave.   Ave.  Ave.  Vector   Max.   Stn.    Total    Solar   Ave.  
  of    of     Air    Rel.  Wind   Wind    Wind   Baro.  Precip.   Rad.    Soil  
Year   Day     Temp.  Hum.  Speed  Dir.    Gust   Pres.                    Temp. 
2015   (PST)    F      %     mph   deg.    mph     mb.     in.     W/m2     F   
------------------------------------------------------------------------------
 245    5:00   45.9    38    2.2   330      5.3    819     0.00       0    64.8
 245    6:00   44.4    42    1.9   328      4.5    820     0.00       8    64.4
 245    7:00   47.0    45    2.5   324      5.1    818     0.00     118    63.9
 245    8:00   66.8    30    2.7   165     14.5    814     0.00     431    64.1
 245    9:00   73.4    23    6.5   163     18.9    820     0.00     600    65.5
 245   10:00   76.4    22    6.8   173     18.2    818     0.00     776    67.1
 245   11:00   79.1    15    8.3   172     19.6    815     0.00     908    68.9
 245   12:00   81.0    13    8.6   171     18.8    816     0.00     964    70.8
 245   13:00   82.0    11    8.4   173     19.7    812     0.00     864    72.2
 245   14:00   81.9    10    8.2   176     20.2    813     0.00     676    72.5
 245   15:00   82.9     9    8.3   166     18.6    816     0.00     702    72.7
 245   16:00   82.2     8    9.0   170     21.5    818     0.00     510    72.7
 245   17:00   81.4     9    9.0   174     22.1    817     0.00     325    72.5
 245   18:00   78.5    10    9.1   173     22.5    817     0.00     110    72.2
 245   19:00   73.6    11    5.5   162     14.4    817     0.00       4    71.7
 245   20:00   70.5    13    3.9   153      7.3    818     0.00       0    71.0
 245   21:00   69.7    15    3.3   147     12.1    818     0.00       0    70.3
 245   22:00   69.4    18    4.9   152      9.8    820     0.00       0    69.8
 245   23:00   67.8    20    4.6   155     11.8    820     0.00       0    69.4
 246    0:00   63.8    22    1.5   146      5.6    819     0.00       0    69.0
 246    1:00   53.1    32    0.6   328      3.2    817     0.00       0    68.3
 246    2:00   51.1    33    2.0   328      5.3    815     0.00       0    67.3
 246    3:00   48.5    35    1.6   326      6.1    812     0.00       0    66.4
 246    4:00   44.9    39    1.0   327      3.7    817     0.00       0    65.6

Return to Stone Cabin, Nevada graphs page.


Western Regional Climate Center,wrcc@dri.edu